sensor_id;sensor_type;location;lat;lon;timestamp;pressure;altitude;pressure_sealevel;temperature;humidity
13593;BME280;6867;50.998;4.250;2022-11-25T00:01:40;100623.72;;;13.76;72.71
13593;BME280;6867;50.998;4.250;2022-11-25T00:04:07;100636.03;;;13.72;72.91
13593;BME280;6867;50.998;4.250;2022-11-25T00:06:35;100653.00;;;13.60;73.43
13593;BME280;6867;50.998;4.250;2022-11-25T00:09:05;100655.84;;;13.35;74.74
13593;BME280;6867;50.998;4.250;2022-11-25T00:11:33;100657.06;;;13.21;75.91
13593;BME280;6867;50.998;4.250;2022-11-25T00:14:00;100664.50;;;13.26;76.13
13593;BME280;6867;50.998;4.250;2022-11-25T00:16:27;100667.00;;;13.20;76.30
13593;BME280;6867;50.998;4.250;2022-11-25T00:18:56;100670.75;;;13.19;76.38
13593;BME280;6867;50.998;4.250;2022-11-25T00:21:25;100672.13;;;13.10;76.62
13593;BME280;6867;50.998;4.250;2022-11-25T00:23:53;100676.16;;;12.83;76.92
13593;BME280;6867;50.998;4.250;2022-11-25T00:26:20;100678.56;;;12.91;76.54
13593;BME280;6867;50.998;4.250;2022-11-25T00:28:49;100669.44;;;12.74;76.48
13593;BME280;6867;50.998;4.250;2022-11-25T00:31:18;100671.84;;;12.82;75.96
13593;BME280;6867;50.998;4.250;2022-11-25T00:33:45;100679.78;;;12.58;76.10
13593;BME280;6867;50.998;4.250;2022-11-25T00:36:16;100677.53;;;12.74;76.13
13593;BME280;6867;50.998;4.250;2022-11-25T00:38:44;100677.28;;;12.57;76.28
13593;BME280;6867;50.998;4.250;2022-11-25T00:41:12;100686.03;;;12.52;76.42
13593;BME280;6867;50.998;4.250;2022-11-25T00:43:57;100677.53;;;12.55;75.97
13593;BME280;6867;50.998;4.250;2022-11-25T00:46:41;100682.28;;;12.53;76.23
13593;BME280;6867;50.998;4.250;2022-11-25T00:49:08;100690.13;;;12.36;76.58
13593;BME280;6867;50.998;4.250;2022-11-25T00:51:36;100686.50;;;12.24;76.87
13593;BME280;6867;50.998;4.250;2022-11-25T00:54:03;100695.63;;;12.23;77.10
13593;BME280;6867;50.998;4.250;2022-11-25T00:56:30;100703.03;;;12.28;77.00
13593;BME280;6867;50.998;4.250;2022-11-25T00:58:56;100704.09;;;12.27;77.03
13593;BME280;6867;50.998;4.250;2022-11-25T01:01:23;100704.16;;;12.20;76.99
13593;BME280;6867;50.998;4.250;2022-11-25T01:03:51;100710.16;;;12.22;77.07
13593;BME280;6867;50.998;4.250;2022-11-25T01:06:18;100710.00;;;12.17;76.99
13593;BME280;6867;50.998;4.250;2022-11-25T01:08:47;100723.25;;;12.12;77.56
13593;BME280;6867;50.998;4.250;2022-11-25T01:11:17;100728.47;;;12.07;77.78
13593;BME280;6867;50.998;4.250;2022-11-25T01:13:44;100724.13;;;12.12;77.41
13593;BME280;6867;50.998;4.250;2022-11-25T01:16:13;100723.34;;;12.05;77.86
13593;BME280;6867;50.998;4.250;2022-11-25T01:18:41;100712.34;;;12.07;77.74
13593;BME280;6867;50.998;4.250;2022-11-25T01:21:10;100681.50;;;12.03;78.00
13593;BME280;6867;50.998;4.250;2022-11-25T01:23:37;100693.69;;;11.73;78.66
13593;BME280;6867;50.998;4.250;2022-11-25T01:26:06;100692.22;;;11.84;78.83
13593;BME280;6867;50.998;4.250;2022-11-25T01:28:33;100688.47;;;11.79;78.96
13593;BME280;6867;50.998;4.250;2022-11-25T01:31:01;100686.72;;;11.98;78.46
13593;BME280;6867;50.998;4.250;2022-11-25T01:33:29;100675.41;;;11.82;78.82
13593;BME280;6867;50.998;4.250;2022-11-25T01:36:00;100667.72;;;11.92;78.88
13593;BME280;6867;50.998;4.250;2022-11-25T01:38:28;100669.78;;;11.59;79.39
13593;BME280;6867;50.998;4.250;2022-11-25T01:40:55;100673.19;;;11.41;79.94
13593;BME280;6867;50.998;4.250;2022-11-25T01:43:23;100673.97;;;11.55;80.17
13593;BME280;6867;50.998;4.250;2022-11-25T01:45:51;100656.78;;;11.49;80.21
13593;BME280;6867;50.998;4.250;2022-11-25T01:48:21;100661.81;;;11.45;80.44
13593;BME280;6867;50.998;4.250;2022-11-25T01:50:51;100671.47;;;11.53;79.66
13593;BME280;6867;50.998;4.250;2022-11-25T01:53:20;100685.72;;;11.60;79.46
13593;BME280;6867;50.998;4.250;2022-11-25T01:55:50;100675.13;;;11.65;79.37
13593;BME280;6867;50.998;4.250;2022-11-25T01:58:23;100662.31;;;11.61;79.38
13593;BME280;6867;50.998;4.250;2022-11-25T02:00:52;100678.69;;;11.59;79.53
13593;BME280;6867;50.998;4.250;2022-11-25T02:03:21;100667.28;;;11.64;79.27
13593;BME280;6867;50.998;4.250;2022-11-25T02:05:53;100664.41;;;11.59;79.50
13593;BME280;6867;50.998;4.250;2022-11-25T02:08:23;100645.84;;;11.51;79.44
13593;BME280;6867;50.998;4.250;2022-11-25T02:10:52;100641.78;;;11.35;80.47
13593;BME280;6867;50.998;4.250;2022-11-25T02:13:20;100628.13;;;11.36;80.47
13593;BME280;6867;50.998;4.250;2022-11-25T02:15:49;100634.84;;;11.20;81.26
13593;BME280;6867;50.998;4.250;2022-11-25T02:18:16;100644.31;;;11.30;81.34
13593;BME280;6867;50.998;4.250;2022-11-25T02:20:43;100679.84;;;11.32;81.19
13593;BME280;6867;50.998;4.250;2022-11-25T02:23:16;100703.06;;;11.26;81.42
13593;BME280;6867;50.998;4.250;2022-11-25T02:25:47;100704.84;;;11.45;81.01
13593;BME280;6867;50.998;4.250;2022-11-25T02:28:16;100695.72;;;11.46;80.72
13593;BME280;6867;50.998;4.250;2022-11-25T02:30:44;100702.75;;;11.47;80.58
13593;BME280;6867;50.998;4.250;2022-11-25T02:33:12;100702.16;;;11.45;80.56
13593;BME280;6867;50.998;4.250;2022-11-25T02:35:39;100708.75;;;11.50;80.42
13593;BME280;6867;50.998;4.250;2022-11-25T02:38:09;100705.41;;;11.54;80.48
13593;BME280;6867;50.998;4.250;2022-11-25T02:40:45;100730.75;;;11.33;81.11
13593;BME280;6867;50.998;4.250;2022-11-25T02:43:14;100739.44;;;11.35;81.24
13593;BME280;6867;50.998;4.250;2022-11-25T02:45:49;100724.34;;;11.28;81.14
13593;BME280;6867;50.998;4.250;2022-11-25T02:48:17;100735.94;;;11.28;81.11
13593;BME280;6867;50.998;4.250;2022-11-25T02:50:44;100737.66;;;11.09;81.43
13593;BME280;6867;50.998;4.250;2022-11-25T02:53:11;100732.69;;;11.13;81.18
13593;BME280;6867;50.998;4.250;2022-11-25T02:55:37;100726.50;;;10.99;81.34
13593;BME280;6867;50.998;4.250;2022-11-25T02:58:04;100726.38;;;10.87;81.30
13593;BME280;6867;50.998;4.250;2022-11-25T03:00:32;100732.38;;;10.83;81.33
13593;BME280;6867;50.998;4.250;2022-11-25T03:02:59;100735.88;;;10.77;81.72
13593;BME280;6867;50.998;4.250;2022-11-25T03:05:26;100747.66;;;10.69;82.07
13593;BME280;6867;50.998;4.250;2022-11-25T03:07:53;100748.72;;;10.68;81.93
13593;BME280;6867;50.998;4.250;2022-11-25T03:10:19;100737.13;;;10.61;82.08
13593;BME280;6867;50.998;4.250;2022-11-25T03:12:46;100754.50;;;10.52;82.82
13593;BME280;6867;50.998;4.250;2022-11-25T03:15:13;100759.28;;;10.50;82.46
13593;BME280;6867;50.998;4.250;2022-11-25T03:17:41;100758.66;;;10.54;82.87
13593;BME280;6867;50.998;4.250;2022-11-25T03:20:09;100757.19;;;10.52;82.53
13593;BME280;6867;50.998;4.250;2022-11-25T03:22:37;100749.78;;;10.54;82.33
13593;BME280;6867;50.998;4.250;2022-11-25T03:25:04;100755.34;;;10.45;82.21
13593;BME280;6867;50.998;4.250;2022-11-25T03:27:32;100774.75;;;10.67;82.60
13593;BME280;6867;50.998;4.250;2022-11-25T03:29:59;100772.06;;;10.67;82.44
13593;BME280;6867;50.998;4.250;2022-11-25T03:32:26;100775.16;;;10.84;82.57
13593;BME280;6867;50.998;4.250;2022-11-25T03:34:54;100785.91;;;10.84;83.20
13593;BME280;6867;50.998;4.250;2022-11-25T03:37:21;100789.97;;;11.13;82.36
13593;BME280;6867;50.998;4.250;2022-11-25T03:39:48;100797.63;;;11.16;82.80
13593;BME280;6867;50.998;4.250;2022-11-25T03:42:14;100787.25;;;11.20;83.01
13593;BME280;6867;50.998;4.250;2022-11-25T03:44:41;100784.75;;;11.32;82.57
13593;BME280;6867;50.998;4.250;2022-11-25T03:47:08;100784.97;;;11.30;81.96
13593;BME280;6867;50.998;4.250;2022-11-25T03:49:35;100777.94;;;11.16;82.09
13593;BME280;6867;50.998;4.250;2022-11-25T03:52:03;100784.19;;;11.10;81.97
13593;BME280;6867;50.998;4.250;2022-11-25T03:54:30;100782.56;;;10.95;81.84
13593;BME280;6867;50.998;4.250;2022-11-25T03:56:57;100799.31;;;10.97;82.10
13593;BME280;6867;50.998;4.250;2022-11-25T03:59:23;100797.25;;;10.86;81.71
13593;BME280;6867;50.998;4.250;2022-11-25T04:01:50;100805.31;;;10.86;81.75
13593;BME280;6867;50.998;4.250;2022-11-25T04:04:17;100800.13;;;10.98;81.83
13593;BME280;6867;50.998;4.250;2022-11-25T04:06:43;100804.91;;;10.89;82.29
13593;BME280;6867;50.998;4.250;2022-11-25T04:09:12;100819.53;;;11.07;82.57
13593;BME280;6867;50.998;4.250;2022-11-25T04:11:38;100829.47;;;11.13;82.99
13593;BME280;6867;50.998;4.250;2022-11-25T04:14:23;100829.03;;;11.22;82.27
13593;BME280;6867;50.998;4.250;2022-11-25T04:16:49;100824.66;;;11.35;82.06
13593;BME280;6867;50.998;4.250;2022-11-25T04:19:16;100832.31;;;11.31;82.05
13593;BME280;6867;50.998;4.250;2022-11-25T04:21:43;100836.25;;;11.35;82.14
13593;BME280;6867;50.998;4.250;2022-11-25T04:24:09;100837.88;;;11.43;82.07
13593;BME280;6867;50.998;4.250;2022-11-25T04:26:38;100850.47;;;11.49;82.12
13593;BME280;6867;50.998;4.250;2022-11-25T04:29:04;100858.75;;;11.47;82.37
13593;BME280;6867;50.998;4.250;2022-11-25T04:31:31;100867.66;;;11.48;82.48
13593;BME280;6867;50.998;4.250;2022-11-25T04:33:58;100865.78;;;11.55;82.27
13593;BME280;6867;50.998;4.250;2022-11-25T04:36:24;100866.00;;;11.54;82.16
13593;BME280;6867;50.998;4.250;2022-11-25T04:38:51;100856.47;;;11.44;82.38
13593;BME280;6867;50.998;4.250;2022-11-25T04:41:18;100861.03;;;11.51;82.29
13593;BME280;6867;50.998;4.250;2022-11-25T04:43:46;100865.16;;;11.53;82.49
13593;BME280;6867;50.998;4.250;2022-11-25T04:46:13;100856.44;;;11.58;81.90
13593;BME280;6867;50.998;4.250;2022-11-25T04:48:42;100860.13;;;11.70;81.89
13593;BME280;6867;50.998;4.250;2022-11-25T04:51:08;100863.28;;;11.60;81.47
13593;BME280;6867;50.998;4.250;2022-11-25T04:53:35;100854.84;;;11.43;81.78
13593;BME280;6867;50.998;4.250;2022-11-25T04:56:02;100860.44;;;11.42;81.80
13593;BME280;6867;50.998;4.250;2022-11-25T04:58:28;100866.00;;;11.40;82.13
13593;BME280;6867;50.998;4.250;2022-11-25T05:01:14;100862.72;;;11.38;81.22
13593;BME280;6867;50.998;4.250;2022-11-25T05:03:40;100861.53;;;11.21;81.48
13593;BME280;6867;50.998;4.250;2022-11-25T05:06:08;100858.41;;;11.17;81.70
13593;BME280;6867;50.998;4.250;2022-11-25T05:08:35;100858.19;;;11.19;81.43
13593;BME280;6867;50.998;4.250;2022-11-25T05:11:02;100872.06;;;11.16;81.57
13593;BME280;6867;50.998;4.250;2022-11-25T05:13:28;100876.41;;;11.17;81.57
13593;BME280;6867;50.998;4.250;2022-11-25T05:15:57;100872.50;;;11.06;81.59
13593;BME280;6867;50.998;4.250;2022-11-25T05:18:25;100886.56;;;11.02;81.67
13593;BME280;6867;50.998;4.250;2022-11-25T05:20:52;100883.88;;;10.88;81.27
13593;BME280;6867;50.998;4.250;2022-11-25T05:23:18;100896.28;;;10.83;81.92
13593;BME280;6867;50.998;4.250;2022-11-25T05:25:45;100889.88;;;10.84;81.74
13593;BME280;6867;50.998;4.250;2022-11-25T05:28:12;100879.53;;;10.81;80.71
13593;BME280;6867;50.998;4.250;2022-11-25T05:30:38;100889.00;;;10.70;81.45
13593;BME280;6867;50.998;4.250;2022-11-25T05:33:06;100891.69;;;10.70;81.80
13593;BME280;6867;50.998;4.250;2022-11-25T05:35:34;100903.31;;;10.70;81.23
13593;BME280;6867;50.998;4.250;2022-11-25T05:38:01;100898.34;;;10.67;80.76
13593;BME280;6867;50.998;4.250;2022-11-25T05:40:29;100909.88;;;10.61;80.45
13593;BME280;6867;50.998;4.250;2022-11-25T05:42:59;100921.84;;;10.52;81.10
13593;BME280;6867;50.998;4.250;2022-11-25T05:45:25;100912.53;;;10.48;80.38
13593;BME280;6867;50.998;4.250;2022-11-25T05:47:52;100915.66;;;10.45;80.58
13593;BME280;6867;50.998;4.250;2022-11-25T05:50:20;100921.41;;;10.35;80.55
13593;BME280;6867;50.998;4.250;2022-11-25T05:52:48;100935.88;;;10.34;81.16
13593;BME280;6867;50.998;4.250;2022-11-25T05:55:14;100934.66;;;10.37;81.19
13593;BME280;6867;50.998;4.250;2022-11-25T05:57:41;100924.47;;;10.32;80.55
13593;BME280;6867;50.998;4.250;2022-11-25T06:00:09;100934.22;;;10.33;81.07
13593;BME280;6867;50.998;4.250;2022-11-25T06:02:36;100924.03;;;10.22;80.83
13593;BME280;6867;50.998;4.250;2022-11-25T06:05:02;100932.06;;;10.22;80.75
13593;BME280;6867;50.998;4.250;2022-11-25T06:07:29;100937.00;;;10.12;80.63
13593;BME280;6867;50.998;4.250;2022-11-25T06:09:57;100929.78;;;10.12;80.26
13593;BME280;6867;50.998;4.250;2022-11-25T06:12:24;100917.53;;;9.96;80.79
13593;BME280;6867;50.998;4.250;2022-11-25T06:14:52;100917.31;;;9.91;81.36
13593;BME280;6867;50.998;4.250;2022-11-25T06:17:18;100914.38;;;9.86;80.36
13593;BME280;6867;50.998;4.250;2022-11-25T06:19:45;100921.75;;;9.78;80.31
13593;BME280;6867;50.998;4.250;2022-11-25T06:22:12;100931.03;;;9.75;80.67
13593;BME280;6867;50.998;4.250;2022-11-25T06:24:39;100930.84;;;9.77;80.76
13593;BME280;6867;50.998;4.250;2022-11-25T06:27:07;100933.34;;;9.78;81.09
13593;BME280;6867;50.998;4.250;2022-11-25T06:29:33;100930.16;;;9.68;80.98
13593;BME280;6867;50.998;4.250;2022-11-25T06:32:00;100933.28;;;9.71;80.46
13593;BME280;6867;50.998;4.250;2022-11-25T06:34:27;100942.59;;;9.76;81.11
13593;BME280;6867;50.998;4.250;2022-11-25T06:36:54;100950.84;;;9.74;80.74
13593;BME280;6867;50.998;4.250;2022-11-25T06:39:20;100957.44;;;9.71;80.42
13593;BME280;6867;50.998;4.250;2022-11-25T06:41:47;100960.94;;;9.72;80.65
13593;BME280;6867;50.998;4.250;2022-11-25T06:44:15;100965.31;;;9.80;80.92
13593;BME280;6867;50.998;4.250;2022-11-25T06:46:42;100990.09;;;9.82;82.07
13593;BME280;6867;50.998;4.250;2022-11-25T06:49:09;100989.94;;;9.90;81.92
13593;BME280;6867;50.998;4.250;2022-11-25T06:51:35;100998.03;;;9.96;82.09
13593;BME280;6867;50.998;4.250;2022-11-25T06:54:02;100999.72;;;10.04;81.53
13593;BME280;6867;50.998;4.250;2022-11-25T06:56:29;101010.47;;;10.04;81.67
13593;BME280;6867;50.998;4.250;2022-11-25T06:58:55;101010.47;;;10.11;81.68
13593;BME280;6867;50.998;4.250;2022-11-25T07:01:25;101006.34;;;10.08;82.41
13593;BME280;6867;50.998;4.250;2022-11-25T07:03:54;101015.91;;;10.17;82.15
13593;BME280;6867;50.998;4.250;2022-11-25T07:06:21;101007.63;;;10.12;81.47
13593;BME280;6867;50.998;4.250;2022-11-25T07:08:48;100998.91;;;10.10;81.33
13593;BME280;6867;50.998;4.250;2022-11-25T07:11:17;101002.63;;;10.09;80.86
13593;BME280;6867;50.998;4.250;2022-11-25T07:13:44;101005.28;;;10.03;81.28
13593;BME280;6867;50.998;4.250;2022-11-25T07:16:12;101014.16;;;10.03;81.18
13593;BME280;6867;50.998;4.250;2022-11-25T07:18:40;101024.47;;;10.00;81.59
13593;BME280;6867;50.998;4.250;2022-11-25T07:21:10;101036.88;;;10.01;81.89
13593;BME280;6867;50.998;4.250;2022-11-25T07:23:38;101045.78;;;10.08;81.75
13593;BME280;6867;50.998;4.250;2022-11-25T07:26:06;101057.00;;;10.18;82.03
13593;BME280;6867;50.998;4.250;2022-11-25T07:28:34;101063.19;;;10.18;82.42
13593;BME280;6867;50.998;4.250;2022-11-25T07:31:05;101074.66;;;10.34;83.12
13593;BME280;6867;50.998;4.250;2022-11-25T07:33:32;101082.41;;;10.50;82.67
13593;BME280;6867;50.998;4.250;2022-11-25T07:36:06;101092.59;;;10.68;82.11
13593;BME280;6867;50.998;4.250;2022-11-25T07:38:34;101083.91;;;10.66;82.14
13593;BME280;6867;50.998;4.250;2022-11-25T07:41:05;101101.09;;;10.78;81.49
13593;BME280;6867;50.998;4.250;2022-11-25T07:43:32;101095.31;;;10.75;81.90
13593;BME280;6867;50.998;4.250;2022-11-25T07:46:10;101095.53;;;10.80;81.83
13593;BME280;6867;50.998;4.250;2022-11-25T07:48:37;101103.94;;;10.70;81.95
13593;BME280;6867;50.998;4.250;2022-11-25T07:51:12;101103.78;;;10.78;82.14
13593;BME280;6867;50.998;4.250;2022-11-25T07:53:39;101106.63;;;10.70;81.96
13593;BME280;6867;50.998;4.250;2022-11-25T07:56:06;101113.75;;;10.84;82.21
13593;BME280;6867;50.998;4.250;2022-11-25T07:58:33;101112.94;;;10.90;82.37
13593;BME280;6867;50.998;4.250;2022-11-25T08:01:01;101123.28;;;10.93;81.89
13593;BME280;6867;50.998;4.250;2022-11-25T08:03:27;101113.22;;;11.09;82.08
13593;BME280;6867;50.998;4.250;2022-11-25T08:05:59;101119.66;;;11.21;81.94
13593;BME280;6867;50.998;4.250;2022-11-25T08:08:27;101117.34;;;11.11;82.17
13593;BME280;6867;50.998;4.250;2022-11-25T08:10:54;101124.84;;;11.29;81.69
13593;BME280;6867;50.998;4.250;2022-11-25T08:13:21;101124.88;;;11.42;81.56
13593;BME280;6867;50.998;4.250;2022-11-25T08:15:47;101126.72;;;11.62;81.91
13593;BME280;6867;50.998;4.250;2022-11-25T08:18:14;101113.91;;;11.64;81.55
13593;BME280;6867;50.998;4.250;2022-11-25T08:20:42;101117.69;;;11.96;81.23
13593;BME280;6867;50.998;4.250;2022-11-25T08:23:08;101102.75;;;11.93;80.78
13593;BME280;6867;50.998;4.250;2022-11-25T08:25:39;101082.69;;;11.89;80.23
13593;BME280;6867;50.998;4.250;2022-11-25T08:28:06;101088.88;;;11.90;80.25
13593;BME280;6867;50.998;4.250;2022-11-25T08:30:33;101100.66;;;11.69;79.78
13593;BME280;6867;50.998;4.250;2022-11-25T08:33:00;101106.88;;;11.76;79.81
13593;BME280;6867;50.998;4.250;2022-11-25T08:35:29;101108.31;;;11.79;79.60
13593;BME280;6867;50.998;4.250;2022-11-25T08:37:56;101119.50;;;11.69;79.68
13593;BME280;6867;50.998;4.250;2022-11-25T08:40:22;101124.47;;;11.65;79.65
13593;BME280;6867;50.998;4.250;2022-11-25T08:42:50;101135.28;;;11.85;79.81
13593;BME280;6867;50.998;4.250;2022-11-25T08:45:17;101143.31;;;11.79;79.77
13593;BME280;6867;50.998;4.250;2022-11-25T08:47:44;101158.06;;;11.96;79.83
13593;BME280;6867;50.998;4.250;2022-11-25T08:50:13;101157.44;;;11.94;79.55
13593;BME280;6867;50.998;4.250;2022-11-25T08:52:40;101150.63;;;11.91;78.98
13593;BME280;6867;50.998;4.250;2022-11-25T08:55:08;101142.91;;;11.68;78.99
13593;BME280;6867;50.998;4.250;2022-11-25T08:57:35;101145.22;;;11.85;79.30
13593;BME280;6867;50.998;4.250;2022-11-25T09:00:04;101155.16;;;11.84;78.95
13593;BME280;6867;50.998;4.250;2022-11-25T09:02:31;101154.06;;;11.65;78.79
13593;BME280;6867;50.998;4.250;2022-11-25T09:04:58;101159.03;;;11.68;78.90
13593;BME280;6867;50.998;4.250;2022-11-25T09:07:25;101163.59;;;11.68;78.85
13593;BME280;6867;50.998;4.250;2022-11-25T09:09:51;101178.91;;;11.54;78.92
13593;BME280;6867;50.998;4.250;2022-11-25T09:12:18;101176.41;;;11.53;78.93
13593;BME280;6867;50.998;4.250;2022-11-25T09:14:45;101180.75;;;11.60;79.08
13593;BME280;6867;50.998;4.250;2022-11-25T09:17:13;101183.06;;;11.63;78.60
13593;BME280;6867;50.998;4.250;2022-11-25T09:19:40;101183.03;;;11.57;78.60
13593;BME280;6867;50.998;4.250;2022-11-25T09:22:07;101192.75;;;11.51;78.71
13593;BME280;6867;50.998;4.250;2022-11-25T09:24:34;101200.44;;;11.61;78.82
13593;BME280;6867;50.998;4.250;2022-11-25T09:27:01;101206.03;;;11.72;78.65
13593;BME280;6867;50.998;4.250;2022-11-25T09:29:27;101207.13;;;11.85;78.01
13593;BME280;6867;50.998;4.250;2022-11-25T09:31:55;101200.91;;;11.91;77.72
13593;BME280;6867;50.998;4.250;2022-11-25T09:34:23;101205.69;;;12.09;77.59
13593;BME280;6867;50.998;4.250;2022-11-25T09:36:50;101204.44;;;12.18;77.31
13593;BME280;6867;50.998;4.250;2022-11-25T09:39:17;101207.97;;;12.12;77.36
13593;BME280;6867;50.998;4.250;2022-11-25T09:41:56;101209.41;;;12.14;77.01
13593;BME280;6867;50.998;4.250;2022-11-25T09:44:56;101214.38;;;12.11;76.76
13593;BME280;6867;50.998;4.250;2022-11-25T09:47:48;101216.06;;;12.25;77.00
13593;BME280;6867;50.998;4.250;2022-11-25T09:50:25;101223.72;;;12.08;77.08
13593;BME280;6867;50.998;4.250;2022-11-25T09:53:03;101237.81;;;12.17;76.82
13593;BME280;6867;50.998;4.250;2022-11-25T09:55:36;101240.31;;;12.25;76.72
13593;BME280;6867;50.998;4.250;2022-11-25T09:58:22;101244.41;;;12.41;76.55
13593;BME280;6867;50.998;4.250;2022-11-25T10:00:52;101244.03;;;12.37;76.05
13593;BME280;6867;50.998;4.250;2022-11-25T10:03:27;101230.13;;;12.40;75.97
13593;BME280;6867;50.998;4.250;2022-11-25T10:06:02;101247.13;;;12.48;75.75
13593;BME280;6867;50.998;4.250;2022-11-25T10:08:35;101244.22;;;12.42;75.49
13593;BME280;6867;50.998;4.250;2022-11-25T10:11:13;101254.78;;;12.51;75.26
13593;BME280;6867;50.998;4.250;2022-11-25T10:13:47;101256.22;;;12.60;74.95
13593;BME280;6867;50.998;4.250;2022-11-25T10:16:35;101257.69;;;12.62;74.94
13593;BME280;6867;50.998;4.250;2022-11-25T10:19:11;101253.75;;;12.58;74.44
13593;BME280;6867;50.998;4.250;2022-11-25T10:21:42;101256.84;;;12.75;74.21
13593;BME280;6867;50.998;4.250;2022-11-25T10:24:13;101241.53;;;12.36;74.38
13593;BME280;6867;50.998;4.250;2022-11-25T10:26:43;101250.00;;;12.73;73.99
13593;BME280;6867;50.998;4.250;2022-11-25T10:29:28;101246.28;;;12.67;73.91
13593;BME280;6867;50.998;4.250;2022-11-25T10:32:19;101256.81;;;12.82;73.81
13593;BME280;6867;50.998;4.250;2022-11-25T10:34:49;101253.28;;;12.81;73.59
13593;BME280;6867;50.998;4.250;2022-11-25T10:37:24;101257.03;;;12.80;73.57
13593;BME280;6867;50.998;4.250;2022-11-25T10:39:52;101252.22;;;13.02;72.46
13593;BME280;6867;50.998;4.250;2022-11-25T10:42:21;101252.63;;;13.06;72.41
13593;BME280;6867;50.998;4.250;2022-11-25T10:44:48;101270.09;;;12.83;73.22
13593;BME280;6867;50.998;4.250;2022-11-25T10:47:25;101277.53;;;12.94;73.39
13593;BME280;6867;50.998;4.250;2022-11-25T10:50:16;101284.16;;;12.99;73.06
13593;BME280;6867;50.998;4.250;2022-11-25T10:52:49;101281.88;;;12.95;72.86
13593;BME280;6867;50.998;4.250;2022-11-25T10:55:19;101284.19;;;12.92;72.60
13593;BME280;6867;50.998;4.250;2022-11-25T10:57:48;101285.81;;;13.06;72.36
13593;BME280;6867;50.998;4.250;2022-11-25T11:00:27;101302.81;;;13.13;72.73
13593;BME280;6867;50.998;4.250;2022-11-25T11:02:54;101293.91;;;13.06;72.38
13593;BME280;6867;50.998;4.250;2022-11-25T11:05:23;101307.63;;;12.85;72.47
13593;BME280;6867;50.998;4.250;2022-11-25T11:10:44;101286.19;;;13.23;70.97
13593;BME280;6867;50.998;4.250;2022-11-25T11:13:23;101295.13;;;13.24;71.41
13593;BME280;6867;50.998;4.250;2022-11-25T11:15:52;101302.16;;;13.25;71.67
13593;BME280;6867;50.998;4.250;2022-11-25T11:18:26;101306.75;;;13.17;71.37
13593;BME280;6867;50.998;4.250;2022-11-25T11:20:55;101321.63;;;13.40;71.43
13593;BME280;6867;50.998;4.250;2022-11-25T11:23:22;101321.63;;;13.40;71.11
13593;BME280;6867;50.998;4.250;2022-11-25T11:25:59;101318.88;;;13.53;70.52
13593;BME280;6867;50.998;4.250;2022-11-25T11:28:36;101325.06;;;13.67;70.48
13593;BME280;6867;50.998;4.250;2022-11-25T11:31:05;101319.28;;;13.57;70.24
13593;BME280;6867;50.998;4.250;2022-11-25T11:33:36;101308.13;;;13.47;69.92
13593;BME280;6867;50.998;4.250;2022-11-25T11:36:18;101317.63;;;13.56;69.50
13593;BME280;6867;50.998;4.250;2022-11-25T11:38:52;101320.81;;;13.39;70.12
13593;BME280;6867;50.998;4.250;2022-11-25T11:41:29;101336.59;;;13.42;69.83
13593;BME280;6867;50.998;4.250;2022-11-25T11:44:07;101326.66;;;13.81;69.56
13593;BME280;6867;50.998;4.250;2022-11-25T11:46:48;101335.19;;;13.78;69.35
13593;BME280;6867;50.998;4.250;2022-11-25T11:49:37;101326.03;;;13.79;69.54
13593;BME280;6867;50.998;4.250;2022-11-25T11:52:15;101332.81;;;13.95;69.35
13593;BME280;6867;50.998;4.250;2022-11-25T11:54:46;101322.50;;;13.79;69.17
13593;BME280;6867;50.998;4.250;2022-11-25T11:57:23;101341.31;;;13.99;68.82
13593;BME280;6867;50.998;4.250;2022-11-25T11:59:54;101342.31;;;14.04;69.30
13593;BME280;6867;50.998;4.250;2022-11-25T12:02:41;101338.38;;;14.00;68.89
13593;BME280;6867;50.998;4.250;2022-11-25T12:05:17;101331.72;;;14.03;68.73
13593;BME280;6867;50.998;4.250;2022-11-25T12:07:53;101342.28;;;14.11;68.88
13593;BME280;6867;50.998;4.250;2022-11-25T12:10:26;101331.19;;;14.26;68.37
13593;BME280;6867;50.998;4.250;2022-11-25T12:13:04;101347.81;;;14.23;68.52
13593;BME280;6867;50.998;4.250;2022-11-25T12:15:38;101338.06;;;14.22;68.07
13593;BME280;6867;50.998;4.250;2022-11-25T12:18:14;101338.97;;;14.40;68.20
13593;BME280;6867;50.998;4.250;2022-11-25T12:20:51;101351.00;;;14.13;67.98
13593;BME280;6867;50.998;4.250;2022-11-25T12:23:23;101344.53;;;14.45;67.66
13593;BME280;6867;50.998;4.250;2022-11-25T12:25:56;101354.94;;;14.42;67.67
13593;BME280;6867;50.998;4.250;2022-11-25T12:28:29;101344.16;;;14.74;66.90
13593;BME280;6867;50.998;4.250;2022-11-25T12:31:05;101352.38;;;14.85;66.97
13593;BME280;6867;50.998;4.250;2022-11-25T12:33:43;101331.78;;;14.84;66.17
13593;BME280;6867;50.998;4.250;2022-11-25T12:36:15;101331.28;;;14.94;65.36
13593;BME280;6867;50.998;4.250;2022-11-25T12:38:45;101349.16;;;14.95;66.07
13593;BME280;6867;50.998;4.250;2022-11-25T12:41:19;101328.00;;;15.10;65.19
13593;BME280;6867;50.998;4.250;2022-11-25T12:43:57;101332.72;;;14.97;65.26
13593;BME280;6867;50.998;4.250;2022-11-25T12:46:29;101336.16;;;15.04;65.12
13593;BME280;6867;50.998;4.250;2022-11-25T12:49:00;101339.63;;;14.92;65.41
13593;BME280;6867;50.998;4.250;2022-11-25T12:51:50;101336.72;;;14.87;65.45
13593;BME280;6867;50.998;4.250;2022-11-25T12:54:41;101353.09;;;14.74;65.65
13593;BME280;6867;50.998;4.250;2022-11-25T13:00:20;101362.09;;;14.68;64.94
13593;BME280;6867;50.998;4.250;2022-11-25T13:06:32;101367.69;;;14.91;65.31
13593;BME280;6867;50.998;4.250;2022-11-25T13:09:14;101370.53;;;14.78;65.09
13593;BME280;6867;50.998;4.250;2022-11-25T13:12:16;101371.63;;;14.70;64.73
13593;BME280;6867;50.998;4.250;2022-11-25T13:15:00;101397.28;;;14.61;65.89
13593;BME280;6867;50.998;4.250;2022-11-25T13:17:34;101407.09;;;14.56;65.78
13593;BME280;6867;50.998;4.250;2022-11-25T13:20:37;101397.28;;;14.61;66.12
13593;BME280;6867;50.998;4.250;2022-11-25T13:23:07;101384.47;;;14.43;65.81
13593;BME280;6867;50.998;4.250;2022-11-25T13:25:36;101396.94;;;14.44;66.40